createdAt,value
2022-09-01T00:01:41.615Z,100923.94
2022-09-01T00:05:46.285Z,100926.97
2022-09-01T00:09:52.633Z,100924.09
2022-09-01T00:13:57.193Z,100926.50
2022-09-01T00:18:03.554Z,100934.91
2022-09-01T00:22:08.689Z,100934.19
2022-09-01T00:26:13.589Z,100929.88
2022-09-01T00:30:17.414Z,100944.75
2022-09-01T00:34:21.510Z,100945.38
2022-09-01T00:38:24.979Z,100935.88
2022-09-01T00:42:30.276Z,100939.63
2022-09-01T00:46:40.625Z,100932.84
2022-09-01T00:50:54.525Z,100930.81
2022-09-01T00:55:03.038Z,100922.56
2022-09-01T00:59:08.978Z,100923.63
2022-09-01T01:03:14.406Z,100933.34
2022-09-01T01:07:18.551Z,100935.25
2022-09-01T01:11:21.773Z,100948.09
2022-09-01T01:15:26.300Z,100935.34
2022-09-01T01:19:58.428Z,100934.06
2022-09-01T01:24:10.926Z,100932.00
2022-09-01T01:28:19.798Z,100926.47
2022-09-01T01:32:27.531Z,100917.25
2022-09-01T01:36:36.073Z,100939.22
2022-09-01T01:40:41.566Z,100936.19
2022-09-01T01:44:46.536Z,100932.69
2022-09-01T01:48:51.533Z,100936.53
2022-09-01T01:53:02.948Z,100947.69
2022-09-01T01:57:17.262Z,100949.59
2022-09-01T02:01:24.480Z,100950.88
2022-09-01T02:05:30.406Z,100956.19
2022-09-01T02:09:34.278Z,100950.22
2022-09-01T02:13:37.786Z,100948.03
2022-09-01T02:17:43.222Z,100947.78
2022-09-01T02:21:49.181Z,100959.75
2022-09-01T02:26:15.216Z,100953.34
2022-09-01T02:30:18.389Z,100958.63
2022-09-01T02:34:25.951Z,100953.22
2022-09-01T02:38:31.391Z,100950.44
2022-09-01T02:42:35.132Z,100954.53
2022-09-01T02:46:41.961Z,100952.06
2022-09-01T02:50:46.668Z,100951.94
2022-09-01T02:54:50.920Z,100951.19
2022-09-01T03:04:54.277Z,100966.19
2022-09-01T03:09:00.687Z,100963.72
2022-09-01T03:13:09.526Z,100968.31
2022-09-01T03:17:15.237Z,100958.50
2022-09-01T03:21:19.250Z,100956.53
2022-09-01T03:25:25.282Z,100956.53
2022-09-01T03:29:29.007Z,100962.97
2022-09-01T03:33:33.797Z,100955.78
2022-09-01T03:37:41.112Z,100959.13
2022-09-01T03:41:46.367Z,100960.97
2022-09-01T03:45:49.565Z,100962.19
2022-09-01T03:49:55.111Z,100965.88
2022-09-01T03:53:59.064Z,100955.91
2022-09-01T03:58:10.063Z,100955.59
2022-09-01T04:02:15.504Z,100954.38
2022-09-01T04:06:24.391Z,100952.31
2022-09-01T04:10:28.384Z,100955.47
2022-09-01T04:14:33.326Z,100958.34
2022-09-01T04:18:36.706Z,100960.03
2022-09-01T04:22:41.705Z,100956.81
2022-09-01T04:26:50.020Z,100960.50
2022-09-01T04:30:58.088Z,100961.47
2022-09-01T04:35:02.386Z,100957.03
2022-09-01T04:39:08.889Z,100962.00
2022-09-01T04:43:16.878Z,100960.56
2022-09-01T04:47:35.312Z,100971.41
2022-09-01T04:51:40.868Z,100974.69
2022-09-01T04:55:46.477Z,100975.84
2022-09-01T04:59:59.928Z,100983.38
2022-09-01T05:04:05.495Z,100990.22
2022-09-01T05:08:17.491Z,100985.00
2022-09-01T05:12:29.597Z,100983.38
2022-09-01T05:16:33.818Z,100984.38
2022-09-01T05:20:42.908Z,100989.59
2022-09-01T05:24:46.943Z,100990.59
2022-09-01T05:28:54.031Z,100992.97
2022-09-01T05:33:00.250Z,100995.03
2022-09-01T05:37:08.751Z,100995.69
2022-09-01T05:41:16.138Z,100991.09
2022-09-01T05:45:23.376Z,101000.38
2022-09-01T05:49:28.822Z,100996.47
2022-09-01T05:53:38.254Z,101000.88
2022-09-01T05:57:42.058Z,100986.38
2022-09-01T06:01:50.251Z,100994.34
2022-09-01T06:05:56.169Z,100992.06
2022-09-01T06:10:02.967Z,100991.38
2022-09-01T06:14:08.814Z,100987.34
2022-09-01T06:18:13.326Z,100988.38
2022-09-01T06:22:28.073Z,100983.13
2022-09-01T06:26:37.180Z,100985.81
2022-09-01T06:30:44.450Z,100993.75
2022-09-01T06:34:49.657Z,100992.34
2022-09-01T06:38:55.224Z,100987.28
2022-09-01T06:43:02.353Z,100984.50
2022-09-01T06:47:06.128Z,100992.94
2022-09-01T06:51:20.141Z,100994.50
2022-09-01T06:55:27.864Z,100985.97
2022-09-01T06:59:34.867Z,100981.81
2022-09-01T07:03:41.603Z,100984.09
2022-09-01T07:08:08.529Z,100987.34
2022-09-01T07:13:05.011Z,100980.94
2022-09-01T07:17:23.631Z,100984.22
2022-09-01T07:21:40.825Z,100985.03
2022-09-01T07:26:01.300Z,100982.03
2022-09-01T07:30:12.071Z,100975.31
2022-09-01T07:39:48.766Z,100977.44
2022-09-01T07:43:09.590Z,100984.28
2022-09-01T07:47:53.284Z,100984.03
2022-09-01T07:52:04.086Z,100989.88
2022-09-01T07:56:10.347Z,100983.66
2022-09-01T08:00:19.002Z,100981.56
2022-09-01T08:04:26.705Z,100990.19
2022-09-01T08:08:32.160Z,100992.09
2022-09-01T08:12:36.902Z,100995.47
2022-09-01T08:16:51.568Z,100999.63
2022-09-01T08:20:57.238Z,100995.47
2022-09-01T08:25:13.972Z,100995.22
2022-09-01T08:29:17.322Z,100997.34
2022-09-01T08:33:20.988Z,100998.72
2022-09-01T08:37:25.950Z,101008.69
2022-09-01T08:41:46.769Z,100999.38
2022-09-01T08:45:53.741Z,100983.38
2022-09-01T08:50:01.284Z,100999.47
2022-09-01T08:54:34.449Z,100991.50
2022-09-01T08:58:40.278Z,100997.81
2022-09-01T09:03:18.922Z,100988.91
2022-09-01T09:07:36.246Z,100992.13
2022-09-01T09:12:03.593Z,100993.91
2022-09-01T09:16:13.399Z,100994.34
2022-09-01T09:20:16.844Z,100997.59
2022-09-01T09:24:29.039Z,100988.31
2022-09-01T09:28:43.112Z,100985.00
2022-09-01T09:37:26.658Z,100968.38
2022-09-01T09:41:29.735Z,100974.75
2022-09-01T09:45:36.141Z,100961.44
2022-09-01T09:49:44.253Z,100961.09
2022-09-01T09:53:50.486Z,100963.66
2022-09-01T09:57:57.950Z,100959.81
2022-09-01T10:02:14.908Z,100954.97
2022-09-01T10:06:33.332Z,100949.59
2022-09-01T10:10:44.766Z,100945.97
2022-09-01T10:14:55.432Z,100934.94
2022-09-01T10:19:07.143Z,100947.34
2022-09-01T10:23:17.960Z,100934.19
2022-09-01T10:27:24.686Z,100935.28
2022-09-01T10:31:32.843Z,100927.22
2022-09-01T10:35:39.720Z,100923.41
2022-09-01T10:40:20.634Z,100934.69
2022-09-01T10:44:31.610Z,100929.25
2022-09-01T10:48:48.586Z,100922.16
2022-09-01T10:53:01.122Z,100922.31
2022-09-01T10:57:12.016Z,100919.84
2022-09-01T11:01:25.818Z,100902.03
2022-09-01T11:06:11.973Z,100906.44
2022-09-01T11:10:43.137Z,100911.72
2022-09-01T11:14:52.963Z,100912.03
2022-09-01T11:18:56.821Z,100892.81
2022-09-01T11:23:03.518Z,100904.19
2022-09-01T11:27:07.890Z,100895.59
2022-09-01T11:31:26.536Z,100901.06
2022-09-01T11:35:30.890Z,100893.22
2022-09-01T11:39:47.666Z,100888.25
2022-09-01T11:43:52.933Z,100890.06
2022-09-01T11:48:01.651Z,100888.84
2022-09-01T11:52:06.586Z,100887.03
2022-09-01T11:56:18.271Z,100890.69
2022-09-01T12:00:29.289Z,100888.69
2022-09-01T12:04:38.070Z,100882.53
2022-09-01T12:08:43.964Z,100881.19
2022-09-01T12:12:47.183Z,100870.63
2022-09-01T12:16:59.843Z,100869.03
2022-09-01T12:21:09.569Z,100864.34
2022-09-01T12:25:21.593Z,100849.41
2022-09-01T12:29:25.412Z,100857.25
2022-09-01T12:33:32.546Z,100847.09
2022-09-01T12:37:38.115Z,100849.84
2022-09-01T12:41:41.581Z,100850.78
2022-09-01T12:45:47.055Z,100853.63
2022-09-01T12:49:52.062Z,100845.28
2022-09-01T12:54:00.651Z,100842.03
2022-09-01T12:58:12.863Z,100848.09
2022-09-01T13:02:29.817Z,100838.38
2022-09-01T13:06:33.493Z,100831.00
2022-09-01T13:10:43.144Z,100830.00
2022-09-01T13:14:46.724Z,100815.22
2022-09-01T13:23:13.928Z,100815.25
2022-09-01T13:27:22.085Z,100795.81
2022-09-01T13:31:29.467Z,100798.72
2022-09-01T13:35:33.017Z,100802.44
2022-09-01T13:39:37.809Z,100795.22
2022-09-01T13:43:45.356Z,100792.72
2022-09-01T13:52:14.263Z,100792.44
2022-09-01T13:56:18.018Z,100798.63
2022-09-01T14:00:26.599Z,100776.75
2022-09-01T14:04:31.088Z,100771.06
2022-09-01T14:08:34.698Z,100771.22
2022-09-01T14:12:39.613Z,100767.38
2022-09-01T14:16:46.395Z,100769.56
2022-09-01T14:20:52.553Z,100751.53
2022-09-01T14:24:56.144Z,100753.25
2022-09-01T14:29:02.139Z,100764.31
2022-09-01T14:33:07.909Z,100760.28
2022-09-01T14:37:11.104Z,100754.53
2022-09-01T14:41:15.124Z,100753.59
2022-09-01T14:45:19.667Z,100751.97
2022-09-01T14:49:24.171Z,100741.84
2022-09-01T14:53:28.842Z,100740.31
2022-09-01T14:57:37.604Z,100740.78
2022-09-01T15:01:42.298Z,100735.31
2022-09-01T15:05:46.695Z,100730.94
2022-09-01T15:09:49.909Z,100733.25
2022-09-01T15:13:53.316Z,100729.69
2022-09-01T15:17:57.566Z,100718.56
2022-09-01T15:22:02.351Z,100719.00
2022-09-01T15:26:05.941Z,100708.78
2022-09-01T15:30:14.559Z,100708.78
2022-09-01T15:34:19.011Z,100708.38
2022-09-01T15:38:27.185Z,100702.78
2022-09-01T15:42:34.385Z,100700.13
2022-09-01T15:46:40.655Z,100704.22
2022-09-01T15:50:43.707Z,100701.19
2022-09-01T15:54:48.150Z,100693.44
2022-09-01T15:59:07.493Z,100689.94
2022-09-01T16:03:11.634Z,100685.00
2022-09-01T16:07:14.766Z,100682.13
2022-09-01T16:11:19.196Z,100687.75
2022-09-01T16:15:25.195Z,100678.25
2022-09-01T16:19:43.147Z,100677.44
2022-09-01T16:23:49.184Z,100673.00
2022-09-01T16:27:56.269Z,100674.56
2022-09-01T16:32:01.697Z,100673.22
2022-09-01T16:36:17.837Z,100660.91
2022-09-01T16:40:39.669Z,100659.00
2022-09-01T16:44:54.727Z,100655.34
2022-09-01T16:49:09.502Z,100658.75
2022-09-01T16:53:24.055Z,100657.13
2022-09-01T16:57:35.151Z,100654.41
2022-09-01T17:01:47.553Z,100662.88
2022-09-01T17:05:57.341Z,100661.47
2022-09-01T17:10:06.974Z,100656.91
2022-09-01T17:14:16.026Z,100652.00
2022-09-01T17:18:29.670Z,100649.13
2022-09-01T17:22:35.112Z,100642.56
2022-09-01T17:26:40.883Z,100650.88
2022-09-01T17:30:54.727Z,100645.16
2022-09-01T17:35:15.084Z,100635.50
2022-09-01T17:39:33.081Z,100641.50
2022-09-01T17:43:51.029Z,100634.19
2022-09-01T17:48:03.308Z,100637.03
2022-09-01T17:52:16.085Z,100626.41
2022-09-01T17:56:37.323Z,100625.84
2022-09-01T18:00:45.341Z,100631.22
2022-09-01T18:05:06.068Z,100639.69
2022-09-01T18:09:13.410Z,100643.97
2022-09-01T18:13:42.513Z,100644.28
2022-09-01T18:17:50.483Z,100635.72
2022-09-01T18:21:57.358Z,100648.84
2022-09-01T18:26:09.325Z,100646.97
2022-09-01T18:30:16.607Z,100648.94
2022-09-01T18:34:37.426Z,100647.00
2022-09-01T18:38:47.459Z,100649.84
2022-09-01T18:43:01.887Z,100653.25
2022-09-01T18:47:08.678Z,100649.34
2022-09-01T18:51:21.077Z,100661.06
2022-09-01T18:55:29.129Z,100656.59
2022-09-01T18:59:54.956Z,100668.06
2022-09-01T19:04:09.938Z,100667.75
2022-09-01T19:08:22.830Z,100666.09
2022-09-01T19:12:36.075Z,100666.09
2022-09-01T19:17:00.122Z,100667.50
2022-09-01T19:21:09.429Z,100664.13
2022-09-01T19:25:33.362Z,100674.09
2022-09-01T19:29:42.356Z,100667.44
2022-09-01T19:33:50.046Z,100668.81
2022-09-01T19:37:53.170Z,100666.25
2022-09-01T19:42:03.221Z,100667.88
2022-09-01T19:46:23.087Z,100668.69
2022-09-01T19:50:32.770Z,100666.41
2022-09-01T19:54:45.970Z,100669.16
2022-09-01T19:58:57.634Z,100672.22
2022-09-01T20:03:08.860Z,100674.66
2022-09-01T20:07:20.719Z,100665.13
2022-09-01T20:11:39.819Z,100668.19
2022-09-01T20:15:50.371Z,100665.75
2022-09-01T20:20:01.363Z,100670.44
2022-09-01T20:24:14.823Z,100671.16
2022-09-01T20:28:27.583Z,100668.22
2022-09-01T20:32:40.423Z,100667.44
2022-09-01T20:36:51.869Z,100663.72
2022-09-01T20:41:00.395Z,100666.53
2022-09-01T20:45:10.973Z,100661.50
2022-09-01T20:49:17.002Z,100667.31
2022-09-01T20:53:37.391Z,100664.06
2022-09-01T20:57:53.271Z,100662.94
2022-09-01T21:02:05.925Z,100662.31
2022-09-01T21:06:17.189Z,100667.47
2022-09-01T21:10:29.336Z,100663.66
2022-09-01T21:14:47.502Z,100672.56
2022-09-01T21:19:00.557Z,100664.72
2022-09-01T21:23:06.570Z,100667.78
2022-09-01T21:27:16.076Z,100656.97
2022-09-01T21:31:21.210Z,100662.31
2022-09-01T21:35:25.217Z,100663.84
2022-09-01T21:39:28.306Z,100661.25
2022-09-01T21:43:37.825Z,100658.19
2022-09-01T21:47:42.981Z,100656.28
2022-09-01T21:51:46.425Z,100653.50
2022-09-01T21:55:49.843Z,100654.66
2022-09-01T21:59:52.921Z,100649.88
2022-09-01T22:03:57.451Z,100648.72
2022-09-01T22:08:01.608Z,100653.41
2022-09-01T22:12:05.321Z,100657.00
2022-09-01T22:16:10.028Z,100646.66
2022-09-01T22:20:18.563Z,100655.56
2022-09-01T22:24:22.515Z,100650.53
2022-09-01T22:28:29.453Z,100642.53
2022-09-01T22:32:42.016Z,100654.06
2022-09-01T22:36:49.176Z,100642.47
2022-09-01T22:40:55.167Z,100641.31
2022-09-01T22:44:58.820Z,100637.78
2022-09-01T22:49:02.131Z,100637.19
2022-09-01T22:53:07.152Z,100634.75
2022-09-01T22:57:10.463Z,100641.66
2022-09-01T23:01:16.407Z,100631.25
2022-09-01T23:05:22.499Z,100633.56
2022-09-01T23:09:27.119Z,100637.31
2022-09-01T23:13:31.051Z,100630.03
2022-09-01T23:17:37.997Z,100629.28
2022-09-01T23:21:41.189Z,100623.03
2022-09-01T23:25:47.058Z,100625.06
2022-09-01T23:29:55.497Z,100614.41
2022-09-01T23:33:59.226Z,100606.28
2022-09-01T23:38:02.939Z,100605.88
2022-09-01T23:42:07.972Z,100608.03
2022-09-01T23:46:18.908Z,100606.75
2022-09-01T23:50:25.276Z,100602.78
2022-09-01T23:54:29.083Z,100598.28
2022-09-01T23:58:33.923Z,100594.78
